Time;durP1;ratioP1;P1;durP2;ratioP2;P2;SDS_P1;SDS_P2;PMS_P1;PMS_P2;Temp;Humidity;BMP_temperature;BMP_pressure;BME280_temperature;BME280_humidity;BME280_pressure;Samples;Min_cycle;Max_cycle;Signal;HPM_P1;HPM_P2
2023/02/23 00:01:56;;;;;;;102.00;58.55;;;10.70;98.50;;;;;;5075956;28;20032;-74
2023/02/23 00:04:23;;;;;;;112.47;61.88;;;10.70;98.50;;;;;;5074100;28;20019;-75
2023/02/23 00:06:52;;;;;;;107.60;63.15;;;10.70;98.50;;;;;;5087919;28;20024;-75
2023/02/23 00:09:23;;;;;;;92.78;54.85;;;10.70;98.50;;;;;;5087333;28;20020;-75
2023/02/23 00:11:53;;;;;;;120.20;67.03;;;10.70;98.50;;;;;;5084979;28;20110;-75
2023/02/23 01:06:05;;;;;;;109.78;61.75;;;10.50;98.80;;;;;;4551482;28;20097;-74
2023/02/23 01:08:35;;;;;;;116.60;65.20;;;10.60;98.80;;;;;;5085351;28;20032;-74
2023/02/23 01:11:10;;;;;;;114.88;64.38;;;10.60;98.70;;;;;;5095655;28;20474;-73
2023/02/23 01:13:38;;;;;;;108.63;61.95;;;10.70;98.70;;;;;;5078406;28;20027;-74
2023/02/23 01:16:09;;;;;;;111.25;62.45;;;10.70;98.60;;;;;;5092261;28;20024;-74
2023/02/23 01:18:35;;;;;;;101.43;61.58;;;10.70;98.50;;;;;;5073666;28;20032;-74
2023/02/23 01:21:04;;;;;;;111.15;63.15;;;10.70;98.40;;;;;;5076909;28;20028;-75
2023/02/23 01:23:30;;;;;;;110.78;61.47;;;10.80;98.50;;;;;;5093373;28;20125;-74
2023/02/23 01:25:56;;;;;;;106.80;60.90;;;10.70;98.40;;;;;;5077613;28;20536;-75
2023/02/23 01:28:22;;;;;;;113.00;63.88;;;10.70;98.40;;;;;;5083260;28;20080;-75
2023/02/23 01:30:48;;;;;;;106.35;62.03;;;10.70;98.40;;;;;;5097446;28;20545;-75
2023/02/23 01:33:13;;;;;;;116.00;65.78;;;10.70;98.40;;;;;;5085116;28;20019;-74
2023/02/23 01:35:39;;;;;;;103.72;59.75;;;10.70;98.50;;;;;;5077564;28;20806;-75
2023/02/23 01:38:05;;;;;;;106.22;63.30;;;10.70;98.50;;;;;;5089525;28;20016;-73
2023/02/23 01:40:31;;;;;;;109.53;63.33;;;10.70;98.60;;;;;;5078720;28;20025;-75
2023/02/23 01:43:24;;;;;;;101.32;58.67;;;10.70;98.50;;;;;;5086432;28;20016;-74
2023/02/23 01:45:54;;;;;;;107.28;60.72;;;10.70;98.50;;;;;;5070675;28;20047;-74
2023/02/23 01:48:22;;;;;;;99.15;58.28;;;10.80;98.50;;;;;;5086452;28;20024;-76
2023/02/23 01:51:07;;;;;;;104.35;58.88;;;10.80;98.50;;;;;;5086337;28;20055;-74
2023/02/23 01:53:37;;;;;;;108.03;62.10;;;10.80;98.50;;;;;;5079394;28;20534;-75
2023/02/23 01:56:11;;;;;;;109.70;60.50;;;10.70;98.50;;;;;;5094703;28;20020;-75
2023/02/23 01:58:44;;;;;;;104.72;61.95;;;10.70;98.50;;;;;;5079541;28;20111;-74
2023/02/23 02:01:12;;;;;;;101.15;56.97;;;10.60;98.50;;;;;;5097331;28;20024;-75
2023/02/23 02:03:47;;;;;;;95.28;55.17;;;10.60;98.50;;;;;;5085789;28;20119;-74
2023/02/23 02:06:16;;;;;;;105.05;60.25;;;10.60;98.60;;;;;;5090482;28;20047;-74
2023/02/23 02:08:46;;;;;;;97.07;57.10;;;10.60;98.60;;;;;;5081767;28;20074;-75
2023/02/23 02:11:29;;;;;;;98.53;53.13;;;10.60;98.60;;;;;;5090681;28;20024;-74
2023/02/23 02:14:16;;;;;;;94.90;56.13;;;10.60;98.60;;;;;;5088941;28;20375;-74
2023/02/23 02:17:09;;;;;;;98.40;57.13;;;10.60;98.60;;;;;;5092415;28;20023;-75
2023/02/23 02:19:35;;;;;;;105.88;60.38;;;10.50;98.50;;;;;;5079786;28;20534;-74
2023/02/23 02:22:30;;;;;;;100.95;56.65;;;10.60;98.50;;;;;;5092663;28;20028;-74
2023/02/23 02:25:28;;;;;;;103.07;58.20;;;10.50;98.50;;;;;;5073175;28;20039;-73
2023/02/23 02:28:09;;;;;;;93.35;52.42;;;10.50;98.50;;;;;;5093284;28;20401;-76
2023/02/23 02:30:53;;;;;;;90.90;54.88;;;10.50;98.50;;;;;;5089310;28;20050;-74
2023/02/23 02:33:42;;;;;;;92.28;54.35;;;10.50;98.60;;;;;;5089747;28;20107;-74
2023/02/23 02:36:53;;;;;;;103.63;58.40;;;10.50;98.60;;;;;;5081295;28;20099;-75
2023/02/23 02:39:38;;;;;;;94.50;54.67;;;10.60;98.60;;;;;;5066535;28;20494;-74
2023/02/23 02:42:18;;;;;;;86.20;50.22;;;10.60;98.50;;;;;;5075342;28;20032;-74
2023/02/23 02:44:43;;;;;;;;;;;10.60;98.50;;;;;;5072811;28;20029;-74
2023/02/23 02:47:16;;;;;;;93.00;53.00;;;10.60;98.50;;;;;;5086054;28;19915;-74
2023/02/23 02:50:05;;;;;;;92.22;53.03;;;10.60;98.50;;;;;;5081874;28;20123;-75
2023/02/23 02:52:50;;;;;;;89.10;52.75;;;10.50;98.50;;;;;;5084052;28;20817;-74
2023/02/23 02:55:25;;;;;;;97.45;55.40;;;10.50;98.70;;;;;;5074738;28;20094;-74
2023/02/23 02:57:55;;;;;;;92.47;54.15;;;10.50;98.70;;;;;;5072415;28;20028;-74
2023/02/23 04:19:54;;;;;;;110.43;60.08;;;10.40;99.00;;;;;;5085411;28;20032;-74
2023/02/23 04:22:21;;;;;;;104.30;57.53;;;10.40;99.10;;;;;;5089962;28;20073;-74
2023/02/23 04:24:48;;;;;;;97.43;55.40;;;10.40;99.10;;;;;;5082427;28;20044;-74
2023/02/23 04:27:14;;;;;;;110.18;60.78;;;10.40;99.20;;;;;;5090786;28;20043;-74
2023/02/23 04:29:39;;;;;;;104.75;58.75;;;10.40;99.20;;;;;;5084206;28;20546;-75
2023/02/23 04:32:06;;;;;;;95.45;53.45;;;10.40;99.20;;;;;;5071912;28;20112;-73
2023/02/23 04:34:33;;;;;;;96.68;54.50;;;10.40;99.30;;;;;;5083875;28;20021;-74
2023/02/23 04:36:58;;;;;;;104.63;59.78;;;10.30;99.30;;;;;;5087435;28;20024;-75
2023/02/23 04:39:24;;;;;;;110.25;57.58;;;10.30;99.40;;;;;;5086058;28;20040;-74
2023/02/23 04:41:49;;;;;;;99.10;53.20;;;10.30;99.40;;;;;;5073148;28;20032;-74
2023/02/23 04:44:16;;;;;;;90.70;53.05;;;10.40;99.40;;;;;;5084378;28;20127;-74
2023/02/23 04:46:42;;;;;;;107.50;59.38;;;10.40;99.40;;;;;;5073245;28;20120;-74
2023/02/23 04:49:08;;;;;;;108.78;58.33;;;10.40;99.40;;;;;;5082575;28;20471;-74
2023/02/23 04:51:35;;;;;;;97.90;55.95;;;10.30;99.40;;;;;;5075796;28;20024;-74
2023/02/23 04:54:01;;;;;;;90.13;51.75;;;10.30;99.40;;;;;;5082593;28;20027;-74
2023/02/23 04:56:27;;;;;;;93.72;51.03;;;10.30;99.40;;;;;;5077347;28;20036;-74
2023/02/23 04:58:53;;;;;;;104.30;54.80;;;10.30;99.50;;;;;;5075027;28;20367;-74
2023/02/23 05:01:21;;;;;;;99.30;54.75;;;10.30;99.50;;;;;;5079602;28;20035;-74
2023/02/23 05:03:49;;;;;;;95.68;51.33;;;10.30;99.50;;;;;;5073876;28;20032;-74
2023/02/23 05:06:16;;;;;;;105.20;54.33;;;10.30;99.50;;;;;;5081401;28;20094;-74
2023/02/23 05:08:42;;;;;;;96.95;52.13;;;10.40;99.50;;;;;;5089359;28;20027;-73
2023/02/23 05:11:09;;;;;;;99.07;54.35;;;10.40;99.50;;;;;;5070854;28;20479;-74
2023/02/23 05:13:35;;;;;;;98.10;54.78;;;10.40;99.50;;;;;;5083595;28;20032;-73
2023/02/23 05:16:00;;;;;;;89.95;50.75;;;10.40;99.40;;;;;;5079939;28;20738;-74
2023/02/23 05:18:26;;;;;;;111.85;58.13;;;10.40;99.40;;;;;;5090873;28;20028;-73
2023/02/23 05:20:52;;;;;;;95.53;54.20;;;10.40;99.40;;;;;;5084861;28;20031;-74
2023/02/23 05:23:20;;;;;;;101.20;55.10;;;10.40;99.40;;;;;;5071759;28;20024;-74
2023/02/23 05:25:46;;;;;;;93.55;52.35;;;10.40;99.40;;;;;;5084290;28;20425;-74
2023/02/23 05:28:12;;;;;;;79.47;46.17;;;10.40;99.40;;;;;;5091583;28;20024;-73
2023/02/23 05:30:37;;;;;;;108.28;58.78;;;10.40;99.40;;;;;;5077165;28;20028;-73
2023/02/23 05:33:03;;;;;;;94.60;51.75;;;10.40;99.40;;;;;;5078433;28;20128;-73
2023/02/23 05:35:29;;;;;;;107.22;58.72;;;10.40;99.40;;;;;;5078443;28;20042;-73
2023/02/23 05:37:54;;;;;;;101.55;54.78;;;10.30;99.40;;;;;;5075649;28;20056;-74
2023/02/23 05:40:20;;;;;;;113.15;59.40;;;10.30;99.50;;;;;;5075114;28;20100;-73
2023/02/23 05:42:46;;;;;;;104.53;54.95;;;10.20;99.50;;;;;;5083763;28;20478;-73
2023/02/23 05:45:11;;;;;;;102.32;57.20;;;10.30;99.50;;;;;;5088207;28;20016;-74
2023/02/23 05:47:37;;;;;;;108.22;60.17;;;10.30;99.60;;;;;;5080889;28;20024;-73
2023/02/23 05:50:10;;;;;;;105.82;55.03;;;10.30;99.60;;;;;;5087096;28;20116;-73
2023/02/23 05:52:43;;;;;;;99.15;53.50;;;10.30;99.60;;;;;;5081517;28;20020;-74
2023/02/23 05:55:10;;;;;;;94.68;50.65;;;10.20;99.60;;;;;;5071793;28;20850;-73
2023/02/23 05:57:36;;;;;;;100.00;53.67;;;10.30;99.60;;;;;;5077738;28;20020;-74
2023/02/23 06:00:04;;;;;;;98.63;51.40;;;10.20;99.60;;;;;;5089291;28;20058;-72
2023/02/23 06:02:30;;;;;;;93.22;53.60;;;10.30;99.60;;;;;;5074892;28;20024;-73
2023/02/23 06:04:55;;;;;;;98.72;52.78;;;10.30;99.60;;;;;;5069447;28;20055;-75
2023/02/23 06:07:21;;;;;;;110.10;55.83;;;10.30;99.60;;;;;;5076240;28;20027;-74
2023/02/23 06:09:47;;;;;;;94.85;51.03;;;10.30;99.60;;;;;;5090171;28;20130;-74
2023/02/23 06:12:12;;;;;;;108.40;55.63;;;10.20;99.60;;;;;;5085753;28;20032;-73
2023/02/23 06:14:38;;;;;;;86.38;48.72;;;10.20;99.70;;;;;;5075484;28;20424;-74
2023/02/23 06:17:04;;;;;;;107.90;57.10;;;10.20;99.70;;;;;;5078927;28;20149;-74
2023/02/23 06:19:30;;;;;;;102.53;54.95;;;10.20;99.70;;;;;;5072406;28;20040;-75
2023/02/23 06:21:56;;;;;;;94.05;49.55;;;10.20;99.70;;;;;;5075918;28;20020;-73
2023/02/23 06:24:22;;;;;;;106.65;57.72;;;10.20;99.80;;;;;;5085772;28;20017;-73
2023/02/23 06:26:49;;;;;;;107.07;57.05;;;10.10;99.80;;;;;;5082590;28;20510;-73
2023/02/23 06:29:15;;;;;;;94.95;51.40;;;10.10;99.80;;;;;;5081158;28;20024;-74
2023/02/23 06:31:41;;;;;;;94.60;52.30;;;10.10;99.80;;;;;;5085349;28;20024;-73
2023/02/23 06:34:09;;;;;;;95.65;51.28;;;10.20;99.80;;;;;;5084126;28;20137;-73
2023/02/23 06:36:35;;;;;;;104.47;53.13;;;10.20;99.80;;;;;;5088245;28;20040;-74
2023/02/23 06:39:02;;;;;;;100.78;53.40;;;10.20;99.80;;;;;;5079216;28;20037;-75
2023/02/23 06:41:28;;;;;;;97.13;51.75;;;10.20;99.70;;;;;;5082543;28;20027;-73
2023/02/23 06:43:54;;;;;;;101.22;54.78;;;10.20;99.70;;;;;;5074220;28;20020;-74
2023/02/23 06:46:20;;;;;;;108.43;56.10;;;10.20;99.70;;;;;;5089885;28;20103;-74
2023/02/23 06:48:46;;;;;;;99.80;51.13;;;10.20;99.70;;;;;;5083313;28;20036;-74
2023/02/23 06:51:12;;;;;;;99.10;52.22;;;10.30;99.70;;;;;;5069935;28;20070;-74
2023/02/23 06:53:37;;;;;;;92.28;49.63;;;10.20;99.60;;;;;;5081490;28;20107;-74
2023/02/23 06:56:03;;;;;;;97.90;50.00;;;10.20;99.60;;;;;;5069659;28;20021;-73
2023/02/23 06:58:29;;;;;;;103.53;54.67;;;10.30;99.70;;;;;;5079503;28;20047;-74
2023/02/23 07:00:58;;;;;;;100.90;53.90;;;10.20;99.70;;;;;;5078336;28;20059;-74
2023/02/23 07:03:24;;;;;;;102.20;53.28;;;10.10;99.80;;;;;;5076171;28;20425;-73
2023/02/23 07:05:51;;;;;;;90.90;49.10;;;10.10;99.90;;;;;;5087051;28;20059;-75
2023/02/23 07:08:18;;;;;;;105.22;55.40;;;10.10;99.90;;;;;;5083827;28;20074;-74
2023/02/23 07:10:44;;;;;;;102.28;54.45;;;10.10;99.90;;;;;;5075803;28;20024;-74
2023/02/23 07:13:13;;;;;;;94.07;52.80;;;10.10;99.90;;;;;;5071961;28;20074;-74
2023/02/23 07:15:40;;;;;;;93.43;51.28;;;10.10;99.90;;;;;;5078452;28;20024;-73
2023/02/23 07:18:06;;;;;;;100.00;53.45;;;10.10;99.90;;;;;;5069457;28;20025;-74
2023/02/23 07:20:32;;;;;;;99.55;52.72;;;10.10;99.90;;;;;;5079738;28;20040;-74
2023/02/23 07:22:59;;;;;;;91.47;49.88;;;10.10;99.90;;;;;;5068897;28;20054;-74
2023/02/23 07:25:27;;;;;;;83.65;46.05;;;10.10;99.90;;;;;;5080351;28;20394;-74
2023/02/23 07:27:55;;;;;;;79.72;44.08;;;10.10;99.90;;;;;;5072116;28;20131;-74
2023/02/23 07:30:23;;;;;;;87.93;47.25;;;10.10;99.90;;;;;;5078870;28;20054;-74
2023/02/23 07:32:50;;;;;;;90.65;49.60;;;10.00;99.90;;;;;;5091545;28;20020;-74
2023/02/23 07:35:16;;;;;;;79.10;43.40;;;10.00;99.90;;;;;;5086677;28;20027;-74
2023/02/23 07:37:42;;;;;;;86.57;45.95;;;10.10;99.90;;;;;;5088611;28;20360;-74
2023/02/23 07:40:09;;;;;;;88.72;46.85;;;10.10;99.90;;;;;;5084170;28;20036;-73
2023/02/23 07:42:34;;;;;;;92.95;49.35;;;10.10;99.90;;;;;;5088288;28;20111;-76
2023/02/23 07:45:01;;;;;;;86.68;49.67;;;10.10;99.90;;;;;;5088267;28;20106;-75
2023/02/23 07:47:29;;;;;;;97.25;50.55;;;10.10;99.90;;;;;;5086291;28;20560;-75
2023/02/23 07:49:59;;;;;;;86.35;45.75;;;10.10;99.90;;;;;;5088932;28;20116;-74
2023/02/23 07:52:25;;;;;;;78.05;44.20;;;10.20;99.90;;;;;;5084873;28;20073;-76
2023/02/23 07:54:52;;;;;;;78.80;42.20;;;10.20;99.90;;;;;;5083145;28;20024;-77
2023/02/23 07:57:20;;;;;;;87.78;47.15;;;10.20;99.90;;;;;;5086319;28;20021;-76
2023/02/23 07:59:49;;;;;;;77.78;41.53;;;10.20;99.90;;;;;;5086845;28;20033;-77
2023/02/23 08:02:15;;;;;;;74.95;43.40;;;10.30;99.90;;;;;;5093110;28;20020;-75
2023/02/23 08:04:42;;;;;;;76.72;42.42;;;10.30;99.90;;;;;;5081039;28;20116;-76
2023/02/23 08:07:08;;;;;;;92.80;48.67;;;10.40;99.90;;;;;;5077460;28;20095;-76
2023/02/23 08:09:34;;;;;;;76.63;42.20;;;10.40;99.90;;;;;;5082251;28;20032;-74
2023/02/23 08:12:01;;;;;;;68.55;38.45;;;10.40;99.70;;;;;;5083615;28;20029;-75
2023/02/23 08:14:27;;;;;;;79.15;43.08;;;10.40;99.80;;;;;;5084328;28;20023;-74
2023/02/23 08:16:53;;;;;;;70.78;40.47;;;10.40;99.80;;;;;;5084134;28;20037;-75
2023/02/23 08:19:22;;;;;;;74.60;42.70;;;10.40;99.80;;;;;;5086393;28;20466;-73
2023/02/23 08:21:49;;;;;;;88.20;47.65;;;10.50;99.70;;;;;;5075923;28;20104;-74
2023/02/23 08:24:15;;;;;;;76.63;42.83;;;10.50;99.60;;;;;;5087947;28;20028;-72
2023/02/23 08:26:41;;;;;;;76.07;44.22;;;10.50;99.50;;;;;;5084525;28;20423;-73
2023/02/23 08:29:08;;;;;;;77.20;43.22;;;10.50;99.40;;;;;;5075828;28;20487;-73
2023/02/23 08:31:34;;;;;;;75.82;41.78;;;10.50;99.40;;;;;;5077541;28;20017;-72
2023/02/23 08:34:00;;;;;;;83.68;46.70;;;10.50;99.30;;;;;;5079630;28;20111;-72
2023/02/23 08:36:26;;;;;;;87.85;49.92;;;10.60;99.40;;;;;;5081959;28;20104;-71
2023/02/23 08:38:53;;;;;;;88.00;47.85;;;10.60;99.30;;;;;;5082453;28;20577;-73
2023/02/23 08:41:20;;;;;;;86.88;47.88;;;10.60;99.30;;;;;;5076889;28;20012;-72
2023/02/23 08:43:47;;;;;;;76.70;42.17;;;10.60;99.40;;;;;;5077769;28;20523;-72
2023/02/23 08:46:15;;;;;;;89.97;48.22;;;10.70;99.40;;;;;;5075424;28;20081;-71
2023/02/23 08:48:41;;;;;;;75.30;42.20;;;10.60;99.30;;;;;;5083094;28;20234;-71
2023/02/23 08:51:07;;;;;;;88.13;48.58;;;10.60;99.30;;;;;;5073513;28;20428;-72
2023/02/23 08:53:33;;;;;;;89.22;48.63;;;10.70;99.40;;;;;;5071951;28;20032;-73
2023/02/23 08:56:04;;;;;;;90.13;48.67;;;10.70;99.40;;;;;;5070685;28;20051;-73
2023/02/23 08:58:31;;;;;;;81.55;46.33;;;10.70;99.40;;;;;;5079760;28;20028;-72
2023/02/23 09:00:58;;;;;;;71.57;39.13;;;10.70;99.30;;;;;;5079776;28;20501;-73
2023/02/23 09:03:28;;;;;;;49.92;26.63;;;10.70;99.40;;;;;;5083207;28;20499;-73
2023/02/23 09:05:56;;;;;;;40.92;20.75;;;10.70;99.40;;;;;;5077036;28;20106;-73
2023/02/23 09:08:22;;;;;;;37.05;18.13;;;10.90;99.10;;;;;;5084457;28;20028;-72
2023/02/23 09:10:48;;;;;;;68.45;40.42;;;11.10;98.60;;;;;;5075641;28;20039;-73
2023/02/23 09:13:14;;;;;;;60.25;34.63;;;11.20;98.30;;;;;;5079900;28;20020;-73
2023/02/23 09:15:40;;;;;;;71.55;41.28;;;11.20;98.30;;;;;;5076915;28;20047;-73
2023/02/23 09:18:09;;;;;;;73.05;43.63;;;11.30;98.30;;;;;;5073118;28;20463;-73
2023/02/23 09:20:35;;;;;;;74.00;42.83;;;11.30;98.10;;;;;;5084181;28;20036;-72
2023/02/23 09:23:00;;;;;;;83.32;47.47;;;11.20;97.90;;;;;;5078464;28;20035;-73
2023/02/23 09:25:28;;;;;;;66.18;37.60;;;11.10;97.90;;;;;;5087201;28;20123;-71
2023/02/23 09:27:58;;;;;;;69.30;40.38;;;11.10;98.10;;;;;;5074553;28;20016;-74
2023/02/23 09:30:26;;;;;;;76.15;44.47;;;11.00;98.30;;;;;;5084646;28;20035;-72
2023/02/23 09:32:53;;;;;;;76.57;42.70;;;11.00;98.40;;;;;;5077449;28;20310;-73
2023/02/23 09:35:22;;;;;;;80.70;46.15;;;11.00;98.40;;;;;;5087669;28;20052;-73
2023/02/23 09:37:50;;;;;;;74.82;44.05;;;11.00;98.50;;;;;;5086231;28;20024;-73
2023/02/23 09:40:42;;;;;;;70.93;39.25;;;10.90;98.50;;;;;;5076052;28;20405;-72
2023/02/23 09:43:12;;;;;;;80.35;47.25;;;10.80;98.70;;;;;;5061947;28;20040;-71
2023/02/23 09:46:03;;;;;;;77.53;42.55;;;10.80;98.80;;;;;;5078910;28;20027;-73
2023/02/23 09:48:29;;;;;;;74.53;42.83;;;10.80;98.90;;;;;;5064993;28;20033;-73
2023/02/23 09:50:58;;;;;;;86.32;48.65;;;10.80;99.00;;;;;;5086656;28;20619;-74
2023/02/23 09:53:36;;;;;;;69.30;39.43;;;10.80;98.90;;;;;;5085917;28;20047;-73
2023/02/23 09:56:09;;;;;;;87.05;48.22;;;10.80;99.00;;;;;;5082444;28;20028;-73
2023/02/23 09:58:35;;;;;;;84.00;48.67;;;10.80;99.20;;;;;;5071743;28;20131;-75
2023/02/23 10:01:04;;;;;;;82.55;45.53;;;10.80;99.20;;;;;;5077140;28;20119;-74
2023/02/23 10:03:33;;;;;;;80.60;46.40;;;10.80;99.30;;;;;;5081866;28;20032;-72
2023/02/23 10:06:03;;;;;;;78.10;44.13;;;10.90;99.30;;;;;;5083745;28;20083;-73
2023/02/23 10:09:14;;;;;;;78.00;44.37;;;10.90;99.20;;;;;;5071506;28;20155;-74
2023/02/23 10:11:51;;;;;;;74.55;41.35;;;10.90;99.20;;;;;;5014193;28;20086;-73
2023/02/23 10:14:55;;;;;;;76.65;44.75;;;10.90;99.00;;;;;;5073651;28;20055;-74
2023/02/23 10:17:33;;;;;;;79.57;45.72;;;11.00;99.10;;;;;;5087624;28;20093;-73
2023/02/23 10:20:03;;;;;;;83.30;45.38;;;11.00;99.00;;;;;;5088865;28;20105;-73
2023/02/23 10:22:33;;;;;;;80.00;41.80;;;10.90;99.00;;;;;;5075849;28;20028;-74
2023/02/23 10:25:24;;;;;;;78.00;44.20;;;10.90;99.00;;;;;;5074894;28;20020;-74
2023/02/23 10:27:51;;;;;;;74.38;38.85;;;10.90;99.00;;;;;;5083857;28;20399;-74
2023/02/23 10:30:23;;;;;;;73.95;40.90;;;10.90;99.00;;;;;;5079130;28;20125;-74
2023/02/23 10:33:01;;;;;;;70.10;38.00;;;10.80;99.00;;;;;;5074668;28;20027;-73
2023/02/23 10:35:28;;;;;;;82.95;45.25;;;10.80;99.00;;;;;;5073658;28;20549;-73
2023/02/23 10:37:55;;;;;;;80.93;43.97;;;10.80;99.00;;;;;;5072148;28;20542;-73
2023/02/23 10:40:24;;;;;;;77.07;42.15;;;10.80;98.90;;;;;;5068937;28;20036;-73
2023/02/23 10:42:51;;;;;;;72.88;39.58;;;10.80;98.90;;;;;;5078929;28;20024;-73
2023/02/23 10:45:23;;;;;;;71.65;39.10;;;10.80;99.00;;;;;;5085790;28;20044;-73
2023/02/23 10:48:06;;;;;;;72.32;39.90;;;10.90;99.20;;;;;;5074172;28;20021;-73
2023/02/23 10:50:34;;;;;;;73.85;42.13;;;10.90;99.00;;;;;;5071903;28;20020;-74
2023/02/23 10:53:15;;;;;;;69.20;38.63;;;11.00;99.00;;;;;;5083301;28;20024;-74
2023/02/23 10:55:44;;;;;;;78.10;42.72;;;11.00;99.00;;;;;;5072353;28;20083;-74
2023/02/23 10:58:19;;;;;;;72.50;38.60;;;11.00;98.90;;;;;;5078145;28;20056;-73
2023/02/23 11:00:59;;;;;;;79.05;42.78;;;11.00;98.90;;;;;;5080339;28;20078;-74
2023/02/23 11:03:51;;;;;;;72.60;39.92;;;11.00;98.80;;;;;;5080517;28;20102;-74
2023/02/23 11:06:34;;;;;;;77.65;39.55;;;11.00;98.90;;;;;;5070313;28;20044;-74
2023/02/23 11:09:26;;;;;;;77.47;41.92;;;11.00;98.80;;;;;;5079953;28;20024;-74
2023/02/23 11:11:57;;;;;;;74.22;37.72;;;11.00;98.70;;;;;;5076998;28;20035;-74
2023/02/23 11:14:26;;;;;;;76.25;38.90;;;11.00;98.70;;;;;;5084622;28;20062;-75
2023/02/23 11:16:54;;;;;;;68.97;37.45;;;11.00;98.70;;;;;;5072681;28;20052;-74
2023/02/23 11:19:29;;;;;;;59.22;33.53;;;11.00;98.70;;;;;;5074139;28;20107;-72
2023/02/23 11:21:56;;;;;;;63.25;34.45;;;11.00;98.80;;;;;;5069538;28;20032;-73
2023/02/23 11:24:31;;;;;;;68.65;36.65;;;11.00;98.80;;;;;;5075337;28;20012;-73
2023/02/23 11:27:02;;;;;;;66.10;35.63;;;11.00;98.90;;;;;;5075295;28;20136;-73
2023/02/23 11:29:28;;;;;;;72.32;38.53;;;11.00;98.80;;;;;;5079336;28;20086;-73
2023/02/23 11:31:56;;;;;;;61.53;32.17;;;11.00;98.80;;;;;;5082802;28;20020;-73
2023/02/23 11:34:34;;;;;;;54.08;30.65;;;11.10;98.80;;;;;;5077561;28;20021;-73
2023/02/23 11:37:20;;;;;;;59.95;31.42;;;11.00;98.50;;;;;;5078809;28;20544;-72
2023/02/23 11:39:57;;;;;;;58.58;32.22;;;11.00;98.60;;;;;;5072825;28;20059;-73
2023/02/23 11:42:26;;;;;;;67.28;36.40;;;11.00;98.60;;;;;;5072555;28;20029;-74
2023/02/23 11:45:12;;;;;;;60.53;33.05;;;11.00;98.70;;;;;;5078505;28;20994;-73
2023/02/23 11:47:40;;;;;;;62.33;33.33;;;11.10;98.90;;;;;;5084131;28;20034;-74
2023/02/23 11:50:18;;;;;;;54.85;29.67;;;11.10;98.80;;;;;;5076192;28;20662;-73
2023/02/23 11:52:44;;;;;;;59.97;32.65;;;11.10;98.80;;;;;;5082165;28;20044;-74
2023/02/23 11:55:17;;;;;;;60.80;32.28;;;11.20;98.80;;;;;;5088210;28;20051;-74
2023/02/23 11:57:42;;;;;;;57.55;31.13;;;11.20;98.80;;;;;;5075534;28;20024;-73
2023/02/23 12:00:21;;;;;;;51.95;27.10;;;11.30;98.70;;;;;;5077841;28;20592;-73
2023/02/23 12:02:54;;;;;;;53.85;30.23;;;11.20;98.40;;;;;;5082530;28;20020;-75
2023/02/23 12:05:30;;;;;;;56.72;30.75;;;11.20;98.30;;;;;;5073180;28;20048;-74
2023/02/23 12:08:00;;;;;;;66.75;34.30;;;11.20;98.30;;;;;;5073305;28;20386;-73
2023/02/23 12:10:52;;;;;;;59.55;31.17;;;11.20;98.10;;;;;;5073165;28;20027;-73
2023/02/23 12:13:30;;;;;;;56.75;29.70;;;11.20;98.10;;;;;;5073377;28;20063;-74
2023/02/23 12:16:06;;;;;;;57.20;31.17;;;11.20;97.90;;;;;;5080486;28;20440;-73
2023/02/23 12:18:56;;;;;;;51.13;27.80;;;11.10;97.90;;;;;;5079701;28;20032;-73
2023/02/23 12:21:45;;;;;;;56.28;29.27;;;11.10;98.10;;;;;;5089738;28;20040;-73
2023/02/23 12:24:29;;;;;;;58.38;31.27;;;11.10;98.10;;;;;;5079953;28;20028;-74
2023/02/23 12:27:12;;;;;;;56.78;29.65;;;11.20;98.30;;;;;;5072242;28;20020;-74
2023/02/23 12:29:43;;;;;;;54.40;28.13;;;11.20;97.90;;;;;;5078974;28;20032;-73
2023/02/23 12:32:36;;;;;;;54.28;28.75;;;11.20;97.90;;;;;;5086882;28;20501;-74
2023/02/23 12:35:20;;;;;;;51.65;27.70;;;11.20;98.00;;;;;;5068381;28;20032;-74
2023/02/23 12:38:11;;;;;;;47.15;26.08;;;11.20;97.90;;;;;;5079625;28;20024;-74
2023/02/23 12:40:40;;;;;;;40.85;23.58;;;11.30;97.90;;;;;;5079052;28;20448;-75
2023/02/23 12:43:14;;;;;;;47.05;26.40;;;11.30;97.90;;;;;;5077095;28;20420;-73
2023/02/23 12:46:06;;;;;;;42.83;22.88;;;11.30;97.80;;;;;;5089897;28;20024;-74
2023/02/23 12:48:58;;;;;;;40.70;23.35;;;11.30;97.30;;;;;;5079459;28;20566;-73
2023/02/23 12:51:33;;;;;;;43.10;23.85;;;11.20;97.30;;;;;;5073094;28;20036;-74
2023/02/23 12:54:00;;;;;;;34.10;19.45;;;11.10;97.40;;;;;;5074248;28;20024;-74
2023/02/23 12:56:44;;;;;;;39.65;22.17;;;11.10;97.40;;;;;;5081944;28;20058;-74
2023/02/23 12:59:29;;;;;;;35.75;18.63;;;11.10;97.80;;;;;;5075260;28;20035;-74
2023/02/23 13:02:07;;;;;;;33.25;17.42;;;11.00;97.60;;;;;;5084090;28;20040;-73
2023/02/23 13:04:50;;;;;;;34.63;17.48;;;11.10;97.50;;;;;;5073488;28;20069;-74
2023/02/23 13:07:21;;;;;;;26.88;14.07;;;11.10;97.50;;;;;;5076594;28;20052;-74
2023/02/23 13:10:14;;;;;;;24.20;13.00;;;11.10;97.60;;;;;;5082608;28;20028;-74
2023/02/23 13:12:50;;;;;;;29.52;15.52;;;11.10;97.70;;;;;;5075039;28;20483;-74
2023/02/23 13:15:41;;;;;;;24.35;12.15;;;11.20;97.70;;;;;;5081769;28;20066;-74
2023/02/23 13:18:38;;;;;;;26.40;13.63;;;11.20;97.50;;;;;;5078941;28;20132;-74
2023/02/23 13:21:16;;;;;;;26.30;13.38;;;11.20;97.30;;;;;;5081974;28;20041;-74
2023/02/23 13:24:05;;;;;;;26.35;13.93;;;11.10;97.30;;;;;;5075138;28;20059;-74
2023/02/23 13:26:54;;;;;;;21.08;11.25;;;11.20;97.20;;;;;;5083565;28;20047;-74
2023/02/23 13:29:35;;;;;;;27.00;13.82;;;11.20;97.20;;;;;;5079675;28;20028;-76
2023/02/23 13:32:03;;;;;;;21.45;12.18;;;11.20;97.10;;;;;;5076314;28;20433;-74
2023/02/23 13:34:35;;;;;;;25.30;12.35;;;11.20;97.30;;;;;;5082755;28;20109;-76
2023/02/23 13:37:05;;;;;;;23.83;12.93;;;11.10;97.30;;;;;;5081603;28;20061;-75
2023/02/23 13:39:55;;;;;;;19.65;11.68;;;11.10;96.90;;;;;;5080275;28;20032;-75
2023/02/23 13:42:43;;;;;;;24.38;12.73;;;11.10;96.90;;;;;;5080541;28;20115;-75
2023/02/23 13:45:31;;;;;;;23.55;11.98;;;11.00;96.70;;;;;;5075140;28;20052;-75
2023/02/23 13:47:56;;;;;;;16.80;8.95;;;11.00;96.70;;;;;;5077253;28;20031;-76
2023/02/23 13:50:49;;;;;;;17.23;9.45;;;11.00;96.80;;;;;;5076076;28;20414;-76
2023/02/23 13:53:40;;;;;;;18.48;10.82;;;11.00;97.00;;;;;;5076297;28;20370;-75
2023/02/23 13:56:27;;;;;;;21.05;11.75;;;11.00;96.90;;;;;;5079553;28;20028;-75
2023/02/23 13:59:08;;;;;;;18.13;9.15;;;11.00;96.70;;;;;;5078629;28;20037;-75
2023/02/23 14:01:39;;;;;;;17.10;8.73;;;11.10;96.60;;;;;;5075444;28;20500;-76
2023/02/23 14:04:12;;;;;;;17.17;9.43;;;11.20;96.60;;;;;;5068857;28;20021;-75
2023/02/23 14:06:39;;;;;;;14.30;7.97;;;11.30;96.50;;;;;;5074360;28;20040;-75
2023/02/23 14:09:27;;;;;;;19.73;10.02;;;11.30;96.70;;;;;;5080803;28;20024;-75
2023/02/23 14:12:18;;;;;;;19.83;10.40;;;11.30;95.80;;;;;;5075953;28;20482;-74
2023/02/23 14:14:45;;;;;;;22.05;11.07;;;11.30;95.70;;;;;;5081549;28;20043;-75
2023/02/23 14:17:14;;;;;;;19.25;10.57;;;11.40;95.90;;;;;;5075675;28;20394;-75
2023/02/23 14:20:05;;;;;;;20.83;11.60;;;11.50;96.00;;;;;;5071828;28;20024;-75
2023/02/23 14:22:33;;;;;;;19.42;11.00;;;11.50;96.30;;;;;;5082131;28;20028;-75
2023/02/23 14:25:36;;;;;;;20.95;11.80;;;11.50;96.40;;;;;;5080638;28;20024;-75
2023/02/23 14:28:23;;;;;;;17.63;9.27;;;11.50;96.50;;;;;;5077231;28;20135;-75
2023/02/23 14:31:09;;;;;;;27.92;13.55;;;11.40;96.60;;;;;;5073688;28;20028;-74
2023/02/23 14:33:41;;;;;;;23.75;13.27;;;11.40;96.30;;;;;;5050973;28;20025;-74
2023/02/23 14:36:28;;;;;;;29.23;13.80;;;11.40;96.10;;;;;;5083992;28;20111;-74
2023/02/23 14:38:56;;;;;;;17.30;8.52;;;11.40;96.00;;;;;;5079426;28;20654;-75
2023/02/23 14:41:25;;;;;;;24.63;11.48;;;11.40;96.60;;;;;;5089188;28;20028;-74
2023/02/23 14:44:05;;;;;;;23.65;12.98;;;11.40;96.60;;;;;;5080778;28;20025;-75
2023/02/23 14:46:33;;;;;;;24.70;13.68;;;11.30;96.30;;;;;;5081276;28;20025;-75
2023/02/23 14:49:01;;;;;;;25.35;14.95;;;11.30;96.20;;;;;;5072314;28;20463;-74
2023/02/23 14:51:40;;;;;;;22.58;12.02;;;11.30;95.90;;;;;;5078444;28;20031;-74
2023/02/23 14:54:25;;;;;;;29.27;16.05;;;11.30;95.90;;;;;;5074367;28;20027;-75
2023/02/23 14:56:56;;;;;;;28.35;14.18;;;11.30;95.90;;;;;;5091554;28;20099;-76
2023/02/23 14:59:28;;;;;;;30.42;16.88;;;11.30;95.90;;;;;;5080464;28;20016;-75
2023/02/23 15:01:58;;;;;;;33.17;18.45;;;11.20;95.80;;;;;;5085628;28;20024;-74
2023/02/23 15:04:26;;;;;;;;;;;11.10;96.00;;;;;;5081233;28;20016;-75